createdAt,value
2023-03-19T00:43:45.718Z,4.80
2023-03-19T01:03:38.056Z,4.40
2023-03-19T01:18:48.710Z,6.15
2023-03-19T01:29:42.031Z,4.63
2023-03-19T02:14:59.062Z,4.13
2023-03-19T02:56:54.460Z,4.20
2023-03-19T02:59:21.925Z,4.10
2023-03-19T03:01:49.058Z,5.82
2023-03-19T03:04:16.808Z,4.85
2023-03-19T03:06:44.862Z,6.43
2023-03-19T03:09:13.584Z,5.53
2023-03-19T03:11:43.758Z,5.78
2023-03-19T03:14:12.042Z,5.25
2023-03-19T03:16:39.332Z,5.43
2023-03-19T03:19:07.113Z,4.72
2023-03-19T03:21:35.684Z,5.05
2023-03-19T03:24:03.072Z,4.80
2023-03-19T03:26:30.292Z,5.60
2023-03-19T03:28:57.456Z,6.13
2023-03-19T03:31:24.583Z,6.53
2023-03-19T03:33:51.892Z,5.57
2023-03-19T03:36:19.342Z,5.40
2023-03-19T03:38:46.534Z,5.00
2023-03-19T03:41:13.730Z,6.10
2023-03-19T03:43:41.215Z,4.93
2023-03-19T03:46:08.836Z,6.03
2023-03-19T03:48:36.347Z,4.93
2023-03-19T03:51:04.519Z,6.13
2023-03-19T03:53:31.850Z,5.00
2023-03-19T03:55:59.333Z,6.45
2023-03-19T03:58:26.470Z,5.32
2023-03-19T04:00:54.812Z,4.95
2023-03-19T04:03:22.581Z,5.05
2023-03-19T04:05:49.970Z,4.75
2023-03-19T04:08:17.249Z,5.15
2023-03-19T04:10:44.874Z,5.57
2023-03-19T04:13:12.786Z,4.68
2023-03-19T04:15:42.902Z,5.32
2023-03-19T04:18:11.940Z,4.53
2023-03-19T04:20:40.216Z,5.40
2023-03-19T04:23:07.491Z,5.95
2023-03-19T04:25:34.569Z,6.85
2023-03-19T04:28:02.209Z,4.65
2023-03-19T04:30:29.477Z,5.25
2023-03-19T04:32:56.901Z,5.32
2023-03-19T04:35:24.271Z,5.10
2023-03-19T04:37:51.814Z,5.63
2023-03-19T04:40:19.458Z,4.47
2023-03-19T04:42:46.582Z,5.47
2023-03-19T04:45:13.728Z,4.78
2023-03-19T04:47:40.872Z,5.05
2023-03-19T04:50:09.637Z,4.10
2023-03-19T04:52:37.877Z,4.55
2023-03-19T04:55:08.271Z,6.28
2023-03-19T04:57:35.594Z,5.00
2023-03-19T05:00:02.922Z,5.18
2023-03-19T05:02:30.153Z,6.18
2023-03-19T05:04:57.295Z,7.85
2023-03-19T05:07:24.364Z,9.38
2023-03-19T05:09:51.677Z,8.40
2023-03-19T05:12:18.751Z,9.43
2023-03-19T05:14:46.167Z,8.40
2023-03-19T05:17:15.318Z,7.60
2023-03-19T05:19:42.540Z,7.30
2023-03-19T05:22:09.773Z,7.40
2023-03-19T05:24:36.973Z,6.82
2023-03-19T05:27:04.758Z,7.05
2023-03-19T05:29:32.203Z,6.38
2023-03-19T05:32:00.625Z,7.78
2023-03-19T05:34:28.179Z,7.88
2023-03-19T05:36:55.561Z,6.88
2023-03-19T05:39:22.891Z,6.68
2023-03-19T05:41:50.444Z,6.78
2023-03-19T05:44:17.514Z,6.05
2023-03-19T05:46:44.659Z,7.22
2023-03-19T05:49:11.774Z,7.22
2023-03-19T05:51:40.072Z,6.03
2023-03-19T05:54:07.200Z,6.72
2023-03-19T05:56:34.246Z,6.75
2023-03-19T05:59:01.365Z,7.43
2023-03-19T06:01:28.531Z,6.43
2023-03-19T06:03:55.704Z,5.53
2023-03-19T06:06:22.846Z,6.35
2023-03-19T06:08:49.991Z,6.50
2023-03-19T06:11:17.347Z,7.00
2023-03-19T06:13:44.486Z,5.68
2023-03-19T06:16:12.074Z,6.18
2023-03-19T06:18:39.213Z,5.32
2023-03-19T06:21:06.466Z,5.65
2023-03-19T06:23:33.870Z,6.22
2023-03-19T06:26:00.997Z,5.57
2023-03-19T06:28:28.181Z,5.25
2023-03-19T06:30:56.316Z,5.82
2023-03-19T06:33:27.620Z,5.95
2023-03-19T06:35:54.926Z,4.63
2023-03-19T06:38:22.626Z,5.18
2023-03-19T06:40:49.770Z,6.57
2023-03-19T06:43:17.622Z,6.55
2023-03-19T06:45:44.685Z,5.68
2023-03-19T06:48:12.028Z,6.32
2023-03-19T06:50:39.247Z,6.53
2023-03-19T06:53:06.336Z,6.22
2023-03-19T06:55:33.775Z,6.55
2023-03-19T06:58:01.104Z,5.80
2023-03-19T07:00:28.802Z,7.05
2023-03-19T07:02:55.896Z,6.50
2023-03-19T07:05:23.203Z,6.13
2023-03-19T07:07:50.265Z,6.72
2023-03-19T07:10:21.576Z,6.32
2023-03-19T07:12:48.668Z,5.72
2023-03-19T07:15:17.666Z,7.63
2023-03-19T07:17:47.131Z,6.97
2023-03-19T07:20:15.410Z,6.40
2023-03-19T07:22:42.630Z,5.60
2023-03-19T07:25:10.166Z,5.60
2023-03-19T07:27:37.210Z,7.63
2023-03-19T07:30:04.641Z,6.43
2023-03-19T07:32:32.461Z,6.05
2023-03-19T07:34:59.903Z,6.28
2023-03-19T07:37:27.075Z,6.72
2023-03-19T07:39:54.153Z,6.20
2023-03-19T07:42:21.144Z,7.13
2023-03-19T07:44:48.159Z,7.43
2023-03-19T07:47:26.388Z,7.07
2023-03-19T07:49:55.860Z,7.10
2023-03-19T07:52:23.171Z,8.07
2023-03-19T07:54:50.688Z,7.47
2023-03-19T07:57:17.943Z,7.95
2023-03-19T07:59:45.470Z,8.65
2023-03-19T08:02:13.635Z,7.80
2023-03-19T08:04:42.148Z,7.80
2023-03-19T08:07:11.229Z,7.70
2023-03-19T08:09:39.525Z,9.02
2023-03-19T08:12:08.131Z,9.23
2023-03-19T08:14:35.898Z,8.60
2023-03-19T08:17:03.003Z,8.20
2023-03-19T08:19:30.612Z,8.48
2023-03-19T08:21:57.878Z,8.07
2023-03-19T08:24:25.057Z,10.48
2023-03-19T08:26:52.235Z,9.43
2023-03-19T08:29:19.365Z,8.55
2023-03-19T08:31:46.554Z,8.85
2023-03-19T08:34:13.787Z,8.48
2023-03-19T08:36:40.861Z,8.30
2023-03-19T08:39:07.892Z,7.97
2023-03-19T08:41:34.919Z,10.25
2023-03-19T08:44:02.012Z,9.02
2023-03-19T08:46:29.427Z,9.23
2023-03-19T08:48:56.604Z,7.72
2023-03-19T08:51:26.090Z,10.50
2023-03-19T08:53:53.928Z,8.73
2023-03-19T08:56:21.264Z,8.73
2023-03-19T08:58:48.580Z,11.15
2023-03-19T09:01:15.968Z,10.20
2023-03-19T09:03:45.456Z,8.23
2023-03-19T09:06:17.111Z,9.25
2023-03-19T09:08:44.892Z,10.23
2023-03-19T09:11:14.463Z,8.85
2023-03-19T09:13:41.873Z,9.20
2023-03-19T09:16:09.280Z,9.05
2023-03-19T09:18:36.747Z,7.10
2023-03-19T09:21:04.347Z,7.55
2023-03-19T09:23:31.706Z,6.57
2023-03-19T09:25:59.027Z,8.13
2023-03-19T09:28:26.449Z,7.38
2023-03-19T09:30:53.717Z,8.48
2023-03-19T09:33:21.660Z,7.32
2023-03-19T09:35:54.468Z,6.72
2023-03-19T09:38:22.700Z,8.63
2023-03-19T09:41:36.505Z,7.30
2023-03-19T09:44:12.112Z,7.57
2023-03-19T09:46:59.404Z,8.23
2023-03-19T09:49:32.636Z,6.80
2023-03-19T09:52:39.253Z,6.82
2023-03-19T09:55:24.978Z,7.85
2023-03-19T09:57:57.057Z,6.90
2023-03-19T10:00:30.643Z,8.55
2023-03-19T10:03:29.982Z,8.75
2023-03-19T10:06:18.581Z,7.28
2023-03-19T10:08:54.542Z,8.25
2023-03-19T10:12:14.773Z,10.07
2023-03-19T10:15:02.333Z,9.30
2023-03-19T10:17:40.674Z,8.25
2023-03-19T10:20:56.922Z,9.60
2023-03-19T10:23:32.568Z,10.50
2023-03-19T10:26:02.910Z,7.43
2023-03-19T10:28:30.543Z,10.18
2023-03-19T10:31:49.912Z,9.68
2023-03-19T10:34:37.896Z,10.05
2023-03-19T10:37:21.360Z,10.18
2023-03-19T10:39:51.484Z,10.43
2023-03-19T10:42:41.413Z,10.50
2023-03-19T10:45:28.164Z,8.70
2023-03-19T10:47:57.752Z,8.60
2023-03-19T10:50:48.908Z,10.63
2023-03-19T10:53:16.054Z,12.10
2023-03-19T10:56:01.469Z,11.02
2023-03-19T10:58:31.675Z,9.70
2023-03-19T11:01:06.198Z,12.13
2023-03-19T11:03:40.300Z,9.20
2023-03-19T11:06:27.844Z,8.75
2023-03-19T11:09:01.682Z,9.93
2023-03-19T11:11:43.394Z,10.40
2023-03-19T11:14:26.840Z,10.65
2023-03-19T11:17:18.111Z,8.32
2023-03-19T11:19:58.629Z,8.35
2023-03-19T11:22:29.926Z,7.70
2023-03-19T11:25:23.187Z,10.70
2023-03-19T11:28:09.279Z,9.55
2023-03-19T11:31:00.467Z,8.35
2023-03-19T11:34:08.066Z,7.35
2023-03-19T11:37:05.412Z,6.30
2023-03-19T11:40:10.858Z,6.88
2023-03-19T11:43:09.214Z,6.40
2023-03-19T11:46:13.069Z,7.07
2023-03-19T11:49:17.208Z,6.30
2023-03-19T11:52:18.864Z,7.10
2023-03-19T11:55:06.898Z,5.07
2023-03-19T11:58:00.523Z,6.97
2023-03-19T12:00:44.673Z,7.95
2023-03-19T12:03:30.500Z,6.70
2023-03-19T12:06:07.475Z,6.95
2023-03-19T12:08:48.200Z,6.68
2023-03-19T12:11:30.942Z,5.88
2023-03-19T12:14:39.313Z,6.15
2023-03-19T12:17:44.853Z,5.80
2023-03-19T12:20:39.030Z,5.50
2023-03-19T12:23:44.212Z,4.63
2023-03-19T12:26:57.673Z,4.18
2023-03-19T12:29:36.694Z,4.55
2023-03-19T12:32:48.771Z,4.18
2023-03-19T12:35:22.332Z,3.90
2023-03-19T12:38:35.614Z,5.65
2023-03-19T12:41:28.608Z,3.92
2023-03-19T12:44:02.109Z,5.00
2023-03-19T12:46:40.387Z,4.07
2023-03-19T12:49:39.660Z,4.45
2023-03-19T12:52:31.404Z,3.65
2023-03-19T12:55:23.892Z,7.65
2023-03-19T12:58:51.131Z,4.10
2023-03-19T13:01:26.888Z,2.67
2023-03-19T13:04:12.361Z,4.32
2023-03-19T13:06:59.472Z,4.22
2023-03-19T13:09:41.388Z,3.20
2023-03-19T13:12:23.931Z,3.53
2023-03-19T13:15:14.294Z,4.53
2023-03-19T13:18:01.460Z,3.17
2023-03-19T13:20:46.700Z,3.20
2023-03-19T13:23:23.584Z,4.32
2023-03-19T13:25:53.051Z,3.05
2023-03-19T13:28:30.799Z,3.72
2023-03-19T13:31:07.689Z,3.58
2023-03-19T13:33:39.379Z,2.80
2023-03-19T13:36:10.519Z,3.22
2023-03-19T13:38:51.844Z,3.22
2023-03-19T13:41:39.195Z,3.75
2023-03-19T13:44:32.717Z,3.45
2023-03-19T13:47:38.011Z,3.15
2023-03-19T13:50:20.617Z,2.67
2023-03-19T13:53:25.089Z,2.45
2023-03-19T13:55:55.910Z,3.10
2023-03-19T13:58:45.435Z,2.70
2023-03-19T14:01:30.774Z,2.55
2023-03-19T14:04:04.397Z,3.35
2023-03-19T14:06:40.959Z,2.97
2023-03-19T14:09:29.695Z,2.97
2023-03-19T14:12:12.292Z,2.20
2023-03-19T14:14:47.712Z,2.30
2023-03-19T14:17:24.580Z,4.75
2023-03-19T14:19:54.352Z,3.78
2023-03-19T14:22:55.259Z,2.45
2023-03-19T14:25:26.175Z,2.28
2023-03-19T14:28:10.852Z,2.63
2023-03-19T14:30:49.885Z,2.70
2023-03-19T14:33:41.972Z,2.38
2023-03-19T14:36:16.376Z,2.75
2023-03-19T14:38:50.815Z,2.83
2023-03-19T14:41:22.567Z,2.90
2023-03-19T14:44:31.314Z,2.00
2023-03-19T14:47:26.254Z,2.88
2023-03-19T14:50:26.782Z,2.55
2023-03-19T14:53:19.503Z,2.75
2023-03-19T14:55:52.882Z,2.58
2023-03-19T14:58:21.075Z,2.22
2023-03-19T15:00:54.481Z,2.35
2023-03-19T15:03:37.346Z,2.65
2023-03-19T15:06:08.263Z,2.20
2023-03-19T15:08:39.782Z,3.95
2023-03-19T15:11:34.560Z,2.35
2023-03-19T15:14:33.264Z,3.28
2023-03-19T15:17:24.355Z,4.03
2023-03-19T15:19:52.555Z,3.38
2023-03-19T15:22:33.960Z,3.42
2023-03-19T15:25:15.619Z,2.92
2023-03-19T15:27:43.196Z,2.85
2023-03-19T15:30:30.967Z,3.42
2023-03-19T15:33:12.095Z,1.98
2023-03-19T15:35:42.341Z,4.32
2023-03-19T15:38:13.015Z,3.20
2023-03-19T15:40:42.688Z,2.33
2023-03-19T15:43:14.710Z,2.60
2023-03-19T15:45:48.514Z,3.63
2023-03-19T15:48:36.017Z,3.03
2023-03-19T15:51:06.581Z,2.60
2023-03-19T15:53:35.696Z,3.80
2023-03-19T15:56:04.636Z,2.15
2023-03-19T15:58:42.612Z,3.13
2023-03-19T16:01:10.644Z,2.63
2023-03-19T16:03:41.684Z,2.13
2023-03-19T16:06:22.603Z,3.33
2023-03-19T16:08:56.766Z,2.05
2023-03-19T16:11:51.852Z,2.60
2023-03-19T16:14:32.137Z,2.45
2023-03-19T16:17:17.956Z,2.65
2023-03-19T16:19:56.616Z,2.55
2023-03-19T16:22:29.462Z,2.03
2023-03-19T16:24:57.550Z,3.45
2023-03-19T16:27:41.857Z,1.77
2023-03-19T16:30:25.872Z,3.10
2023-03-19T16:33:04.991Z,2.92
2023-03-19T16:35:37.416Z,2.08
2023-03-19T16:38:27.503Z,2.63
2023-03-19T16:41:25.753Z,1.80
2023-03-19T16:43:55.967Z,1.75
2023-03-19T16:46:24.881Z,2.88
2023-03-19T16:48:52.031Z,2.80
2023-03-19T16:51:24.420Z,2.60
2023-03-19T16:53:52.340Z,2.58
2023-03-19T16:56:32.465Z,3.03
2023-03-19T16:59:07.535Z,2.05
2023-03-19T17:01:34.690Z,2.38
2023-03-19T17:06:46.682Z,2.70
2023-03-19T17:09:18.744Z,2.78
2023-03-19T17:11:47.501Z,1.63
2023-03-19T17:14:22.897Z,2.35
2023-03-19T17:16:56.729Z,2.15
2023-03-19T17:19:38.345Z,7.07
2023-03-19T17:22:09.613Z,5.22
2023-03-19T17:24:38.187Z,3.35
2023-03-19T17:27:09.168Z,3.60
2023-03-19T17:29:36.247Z,3.78
2023-03-19T17:32:08.694Z,4.07
2023-03-19T17:34:40.157Z,4.88
2023-03-19T17:37:17.655Z,6.97
2023-03-19T17:39:46.236Z,6.25
2023-03-19T17:42:24.359Z,5.75
2023-03-19T17:45:01.994Z,6.63
2023-03-19T17:47:43.578Z,6.70
2023-03-19T17:50:40.157Z,4.72
2023-03-19T17:53:35.039Z,4.60
2023-03-19T17:56:02.423Z,4.03
2023-03-19T17:58:31.460Z,3.65
2023-03-19T18:01:04.326Z,5.20
2023-03-19T18:03:35.253Z,6.90
2023-03-19T18:06:07.175Z,6.00
2023-03-19T18:08:35.382Z,5.80
2023-03-19T18:11:02.687Z,6.05
2023-03-19T18:13:30.298Z,10.80
2023-03-19T18:16:02.952Z,7.10
2023-03-19T18:18:31.004Z,5.93
2023-03-19T18:21:00.544Z,5.53
2023-03-19T18:23:28.424Z,5.00
2023-03-19T18:25:58.545Z,4.68
2023-03-19T18:28:41.518Z,4.78
2023-03-19T18:31:27.821Z,4.35
2023-03-19T18:34:05.228Z,4.10
2023-03-19T18:36:38.776Z,4.05
2023-03-19T18:42:17.052Z,5.70
2023-03-19T18:49:59.917Z,2.95
2023-03-19T18:52:27.125Z,3.38
2023-03-19T18:54:54.184Z,3.67
2023-03-19T18:57:22.502Z,3.75
2023-03-19T18:59:49.835Z,3.53
2023-03-19T19:02:35.262Z,3.75
2023-03-19T19:05:03.752Z,4.05
2023-03-19T19:07:30.940Z,3.20
2023-03-19T19:09:59.802Z,3.15
2023-03-19T19:12:28.083Z,4.35
2023-03-19T19:14:56.872Z,10.43
2023-03-19T19:17:24.799Z,8.48
2023-03-19T19:19:53.035Z,6.75
2023-03-19T19:22:21.968Z,5.15
2023-03-19T19:24:54.099Z,4.43
2023-03-19T19:27:26.193Z,3.95
2023-03-19T19:29:57.706Z,4.18
2023-03-19T19:32:46.813Z,4.20
2023-03-19T19:35:36.874Z,4.47
2023-03-19T19:38:07.828Z,4.90
2023-03-19T19:40:38.030Z,5.28
2023-03-19T19:43:07.316Z,4.15
2023-03-19T19:45:41.669Z,3.80
2023-03-19T19:48:17.385Z,4.85
2023-03-19T19:50:46.882Z,4.25
2023-03-19T19:53:16.838Z,2.95
2023-03-19T19:55:45.455Z,3.42
2023-03-19T19:58:24.970Z,3.25
2023-03-19T20:01:02.765Z,2.38
2023-03-19T20:03:33.933Z,2.38
2023-03-19T20:06:04.659Z,2.88
2023-03-19T20:08:33.383Z,2.92
2023-03-19T20:11:00.638Z,3.28
2023-03-19T20:13:34.281Z,3.60
2023-03-19T20:16:03.158Z,3.70
2023-03-19T20:18:33.422Z,4.95
2023-03-19T20:21:01.274Z,3.42
2023-03-19T20:23:28.692Z,5.38
2023-03-19T20:25:56.364Z,3.40
2023-03-19T20:28:34.495Z,3.20
2023-03-19T20:31:05.735Z,3.35
2023-03-19T20:33:46.613Z,4.50
2023-03-19T20:36:19.475Z,5.63
2023-03-19T20:38:50.964Z,4.72
2023-03-19T20:41:24.814Z,4.07
2023-03-19T20:43:54.539Z,4.07
2023-03-19T20:46:23.657Z,5.93
2023-03-19T20:48:51.386Z,4.85
2023-03-19T20:51:25.010Z,5.57
2023-03-19T20:53:52.864Z,5.28
2023-03-19T20:56:25.529Z,5.03
2023-03-19T20:58:53.456Z,4.15
2023-03-19T21:01:21.704Z,4.13
2023-03-19T21:03:49.550Z,4.43
2023-03-19T21:06:23.075Z,4.65
2023-03-19T21:08:59.874Z,3.50
2023-03-19T21:11:40.671Z,5.13
2023-03-19T21:14:17.002Z,3.35
2023-03-19T21:16:45.045Z,4.07
2023-03-19T21:19:37.400Z,3.22
2023-03-19T21:22:14.336Z,3.80
2023-03-19T21:24:42.893Z,3.65
2023-03-19T21:27:24.298Z,3.65
2023-03-19T21:29:55.374Z,3.75
2023-03-19T21:32:23.103Z,3.42
2023-03-19T21:34:52.477Z,3.80
2023-03-19T21:37:22.282Z,3.63
2023-03-19T21:39:52.457Z,3.47
2023-03-19T21:42:23.480Z,3.90
2023-03-19T21:44:59.773Z,4.00
2023-03-19T21:47:29.234Z,3.53
2023-03-19T21:50:12.052Z,3.83
2023-03-19T21:52:57.013Z,3.28
2023-03-19T21:55:29.950Z,3.85
2023-03-19T21:58:03.749Z,3.97
2023-03-19T22:00:33.977Z,3.63
2023-03-19T22:03:10.939Z,3.27
2023-03-19T22:05:50.965Z,3.10
2023-03-19T22:08:25.198Z,5.07
2023-03-19T22:10:58.006Z,4.32
2023-03-19T22:13:37.576Z,3.80
2023-03-19T22:16:25.208Z,3.60
2023-03-19T22:18:54.489Z,3.65
2023-03-19T22:21:27.749Z,4.32
2023-03-19T22:24:02.142Z,4.18
2023-03-19T22:27:00.116Z,2.90
2023-03-19T22:29:35.462Z,2.63
2023-03-19T22:32:17.772Z,3.63
2023-03-19T22:34:48.297Z,2.50
2023-03-19T22:37:32.029Z,3.10
2023-03-19T22:39:59.107Z,2.95
2023-03-19T22:42:28.437Z,2.60
2023-03-19T22:45:02.997Z,2.50
2023-03-19T22:47:36.223Z,3.08
2023-03-19T22:50:08.908Z,2.60
2023-03-19T22:52:46.083Z,2.60
2023-03-19T22:55:16.501Z,4.22
2023-03-19T22:57:45.860Z,2.40
2023-03-19T23:00:23.957Z,2.70
2023-03-19T23:03:02.018Z,3.05
2023-03-19T23:05:40.056Z,2.70
2023-03-19T23:08:21.059Z,3.17
2023-03-19T23:10:50.301Z,3.40
2023-03-19T23:13:18.965Z,2.92
2023-03-19T23:15:49.578Z,2.58
2023-03-19T23:18:24.447Z,2.97
2023-03-19T23:20:53.980Z,2.90
2023-03-19T23:23:21.547Z,3.00
2023-03-19T23:25:49.731Z,3.42
2023-03-19T23:28:28.863Z,3.78
2023-03-19T23:30:58.868Z,3.20
2023-03-19T23:33:30.007Z,3.67
2023-03-19T23:35:59.449Z,3.33
2023-03-19T23:38:29.201Z,3.53
2023-03-19T23:40:56.841Z,5.70
2023-03-19T23:43:28.104Z,3.80
2023-03-19T23:45:57.236Z,4.00
2023-03-19T23:48:38.613Z,3.35
2023-03-19T23:51:10.407Z,2.97
2023-03-19T23:53:46.417Z,3.40
2023-03-19T23:56:27.900Z,2.72
2023-03-19T23:59:00.400Z,3.25
